Time;durP1;ratioP1;P1;durP2;ratioP2;P2;SDS_P1;SDS_P2;PMS_P1;PMS_P2;Temp;Humidity;BMP_temperature;BMP_pressure;BME280_temperature;BME280_humidity;BME280_pressure;Samples;Min_cycle;Max_cycle;Signal;HPM_P1;HPM_P2
2023/12/20 06:00:59;;;;;;;1.02;0.43;;;6.00;93.50;;;;;;4684208;23;20566;-81
2023/12/20 06:03:01;;;;;;;1.08;0.47;;;5.90;93.40;;;;;;4106050;28;20055;-80
2023/12/20 06:05:03;;;;;;;0.98;0.30;;;5.90;93.60;;;;;;4116051;28;20050;-80
2023/12/20 06:07:05;;;;;;;1.33;0.45;;;5.90;93.40;;;;;;4117154;28;20392;-80
2023/12/20 06:09:06;;;;;;;0.52;0.20;;;5.90;93.60;;;;;;4116597;28;20126;-80
2023/12/20 06:11:08;;;;;;;1.13;0.40;;;6.00;93.70;;;;;;4117128;28;20059;-82
2023/12/20 06:13:09;;;;;;;1.00;0.40;;;5.90;93.70;;;;;;4116583;28;20104;-80
2023/12/20 06:15:11;;;;;;;1.02;0.30;;;5.90;93.70;;;;;;4117042;28;20058;-81
2023/12/20 06:17:15;;;;;;;0.75;0.30;;;5.90;93.70;;;;;;4116832;28;20050;-79
2023/12/20 06:19:17;;;;;;;1.00;0.35;;;5.90;93.70;;;;;;4117166;28;20047;-78
2023/12/20 06:21:19;;;;;;;1.77;0.60;;;5.90;94.00;;;;;;4116483;28;20445;-80
2023/12/20 06:23:21;;;;;;;1.15;0.45;;;6.00;93.70;;;;;;4117145;28;20110;-80
2023/12/20 06:25:23;;;;;;;1.30;0.40;;;5.90;93.70;;;;;;4117017;28;20109;-80
2023/12/20 06:27:25;;;;;;;1.55;0.60;;;5.90;93.60;;;;;;4116968;28;20051;-79
2023/12/20 06:29:27;;;;;;;1.20;0.43;;;5.90;93.50;;;;;;4116950;28;20110;-80
2023/12/20 06:31:29;;;;;;;1.25;0.43;;;5.90;93.50;;;;;;4116957;28;20047;-81
2023/12/20 06:33:32;;;;;;;1.23;0.50;;;5.90;93.70;;;;;;4099776;29;20051;-81
2023/12/20 06:35:34;;;;;;;1.40;0.70;;;5.90;93.80;;;;;;4116866;28;20051;-81
2023/12/20 06:37:36;;;;;;;1.40;0.60;;;5.90;93.90;;;;;;4116637;28;20057;-82
2023/12/20 06:39:38;;;;;;;4.18;0.88;;;5.90;93.80;;;;;;4117085;28;20444;-80
2023/12/20 06:41:39;;;;;;;2.28;0.60;;;5.90;93.80;;;;;;4116676;28;20334;-81
2023/12/20 06:43:41;;;;;;;1.75;0.60;;;5.90;93.80;;;;;;4116798;28;20058;-81
2023/12/20 06:45:43;;;;;;;6.57;2.38;;;5.90;94.00;;;;;;4116455;28;20141;-82
2023/12/20 06:47:45;;;;;;;4.80;2.00;;;5.90;94.00;;;;;;4116444;28;20539;-80
2023/12/20 06:49:48;;;;;;;12.20;5.43;;;5.90;94.00;;;;;;4116661;28;20043;-80
2023/12/20 06:51:50;;;;;;;1.98;0.80;;;5.90;93.90;;;;;;4116728;28;20054;-80
2023/12/20 06:53:52;;;;;;;1.88;0.75;;;5.90;94.00;;;;;;4116759;28;20448;-80
2023/12/20 06:55:56;;;;;;;2.17;0.70;;;5.90;93.90;;;;;;4116819;28;20051;-81
2023/12/20 06:57:57;;;;;;;1.33;0.50;;;5.90;93.90;;;;;;4100710;29;20082;-78
2023/12/20 06:59:58;;;;;;;2.70;0.65;;;5.90;94.00;;;;;;4100816;29;20078;-81
2023/12/20 07:02:00;;;;;;;1.17;0.60;;;5.90;94.00;;;;;;4100537;29;20114;-81
2023/12/20 07:04:01;;;;;;;1.40;0.52;;;5.90;94.00;;;;;;4100790;29;20055;-80
2023/12/20 07:06:05;;;;;;;1.60;0.60;;;5.90;93.90;;;;;;4100576;29;20479;-80
2023/12/20 07:08:08;;;;;;;2.70;0.75;;;5.90;93.80;;;;;;4100556;29;20047;-81
2023/12/20 07:10:09;;;;;;;2.53;0.80;;;5.90;93.90;;;;;;4100804;29;20197;-81
2023/12/20 07:12:11;;;;;;;1.38;0.50;;;5.90;93.80;;;;;;4100770;29;20106;-81
2023/12/20 07:14:13;;;;;;;2.10;0.73;;;5.90;93.70;;;;;;4100878;29;20055;-80
2023/12/20 07:16:14;;;;;;;1.90;0.70;;;5.90;93.80;;;;;;4100754;29;20059;-82
2023/12/20 07:18:16;;;;;;;1.67;0.70;;;6.00;93.70;;;;;;4101088;29;20396;-84
2023/12/20 07:20:18;;;;;;;1.92;0.80;;;6.00;93.70;;;;;;4100992;29;20055;-81
2023/12/20 07:22:20;;;;;;;1.75;0.80;;;6.00;93.70;;;;;;4100911;29;20052;-82
2023/12/20 07:24:22;;;;;;;2.20;0.80;;;6.00;93.70;;;;;;4103847;28;20119;-82
2023/12/20 07:26:24;;;;;;;1.77;0.70;;;5.90;93.70;;;;;;4103785;29;20055;-80
2023/12/20 07:28:26;;;;;;;3.42;0.73;;;5.90;93.70;;;;;;4103356;29;20062;-81
2023/12/20 07:30:27;;;;;;;2.33;0.90;;;5.90;93.60;;;;;;4103619;29;20050;-80
2023/12/20 07:32:29;;;;;;;2.28;1.00;;;6.00;93.50;;;;;;4103581;29;20392;-81
2023/12/20 07:34:30;;;;;;;1.95;0.70;;;6.00;93.40;;;;;;4103465;29;20059;-80
2023/12/20 07:36:32;;;;;;;2.35;0.80;;;6.00;93.40;;;;;;4103259;29;20047;-80
2023/12/20 07:38:36;;;;;;;1.70;0.70;;;6.00;93.30;;;;;;4103313;29;20051;-80
2023/12/20 07:40:37;;;;;;;2.53;0.82;;;6.00;93.40;;;;;;4103727;29;20051;-79
2023/12/20 07:42:40;;;;;;;3.97;0.82;;;6.00;93.40;;;;;;4103479;29;20138;-82
2023/12/20 07:44:42;;;;;;;2.13;0.90;;;6.00;93.30;;;;;;4103605;29;20051;-81
2023/12/20 07:46:44;;;;;;;2.33;0.93;;;6.00;93.40;;;;;;4103431;29;20569;-80
2023/12/20 07:48:46;;;;;;;2.78;1.00;;;6.10;93.30;;;;;;4103523;29;20047;-79
2023/12/20 07:50:48;;;;;;;2.53;0.82;;;6.00;93.40;;;;;;4103064;29;20082;-79
2023/12/20 07:52:49;;;;;;;2.38;1.00;;;6.00;93.40;;;;;;4103235;29;20055;-80
2023/12/20 07:54:52;;;;;;;2.65;1.17;;;6.10;93.40;;;;;;4103218;29;20114;-80
2023/12/20 07:56:54;;;;;;;2.88;1.20;;;6.00;93.50;;;;;;4093834;29;20047;-81
2023/12/20 07:58:56;;;;;;;2.00;0.85;;;6.10;93.60;;;;;;4119072;28;20105;-80
2023/12/20 08:00:57;;;;;;;2.50;1.10;;;6.00;93.40;;;;;;4119347;28;20106;-80
2023/12/20 08:02:59;;;;;;;8.82;5.40;;;6.10;93.50;;;;;;4119268;28;20054;-79
2023/12/20 08:05:01;;;;;;;4.55;2.20;;;6.10;93.50;;;;;;4119209;28;20054;-81
2023/12/20 08:07:04;;;;;;;2.72;1.30;;;6.10;93.30;;;;;;4119240;28;20050;-80
2023/12/20 08:09:06;;;;;;;2.25;0.90;;;6.10;93.30;;;;;;4119154;28;20046;-81
2023/12/20 08:11:09;;;;;;;2.70;1.00;;;6.10;93.40;;;;;;4119309;28;20050;-79
2023/12/20 08:13:11;;;;;;;1.80;0.73;;;6.10;93.30;;;;;;4119915;28;20456;-81
2023/12/20 08:15:14;;;;;;;2.58;0.95;;;6.00;93.50;;;;;;4102948;28;20513;-80
2023/12/20 08:17:18;;;;;;;2.60;1.10;;;6.00;93.50;;;;;;4118943;28;20472;-81
2023/12/20 08:19:20;;;;;;;2.22;1.00;;;6.00;93.70;;;;;;4119059;28;20476;-81
2023/12/20 08:21:23;;;;;;;2.78;1.20;;;6.00;93.80;;;;;;4118870;28;20319;-81
2023/12/20 08:23:24;;;;;;;2.78;1.17;;;6.00;93.60;;;;;;4120528;28;20074;-81
2023/12/20 08:25:27;;;;;;;3.00;1.20;;;6.00;93.70;;;;;;4120620;28;20059;-80
2023/12/20 08:27:31;;;;;;;3.92;1.42;;;6.00;93.80;;;;;;4119364;28;20053;-80
2023/12/20 08:29:33;;;;;;;3.00;1.30;;;6.00;93.80;;;;;;4119635;28;20118;-81
2023/12/20 08:31:34;;;;;;;3.45;1.35;;;6.00;93.60;;;;;;4119240;28;20050;-82
2023/12/20 08:33:36;;;;;;;3.03;1.10;;;6.00;93.70;;;;;;4118991;28;20054;-80
2023/12/20 08:35:38;;;;;;;3.85;1.40;;;5.90;93.80;;;;;;4118297;28;20051;-81
2023/12/20 08:37:40;;;;;;;2.50;1.10;;;6.00;94.00;;;;;;4118606;28;20101;-83
2023/12/20 08:39:43;;;;;;;2.60;1.00;;;6.00;94.00;;;;;;4118747;28;20114;-83
2023/12/20 08:41:45;;;;;;;2.60;1.10;;;6.00;94.00;;;;;;4118782;28;20054;-82
2023/12/20 08:43:49;;;;;;;3.45;1.20;;;6.00;94.30;;;;;;4101250;29;20051;-81
2023/12/20 08:45:51;;;;;;;2.90;0.93;;;5.90;94.30;;;;;;4118740;28;20074;-78
2023/12/20 08:47:52;;;;;;;2.30;1.00;;;5.90;94.40;;;;;;4118460;28;20179;-79
2023/12/20 08:49:56;;;;;;;2.25;1.00;;;6.00;94.70;;;;;;4118513;28;20464;-80
2023/12/20 08:51:57;;;;;;;2.40;1.10;;;5.90;94.80;;;;;;4118984;28;20046;-80
2023/12/20 08:53:58;;;;;;;3.63;1.25;;;5.90;94.80;;;;;;4118658;28;20047;-79
2023/12/20 08:56:01;;;;;;;2.70;1.20;;;6.00;94.80;;;;;;4118948;28;20054;-86
2023/12/20 08:58:03;;;;;;;2.83;1.10;;;6.00;94.70;;;;;;4102776;28;20480;-86
2023/12/20 09:00:09;;;;;;;4.13;1.13;;;6.00;94.80;;;;;;4103060;29;20110;-84
2023/12/20 09:02:11;;;;;;;7.70;3.55;;;6.00;94.90;;;;;;4103892;28;20081;-82
2023/12/20 09:04:13;;;;;;;9.73;4.78;;;6.00;94.90;;;;;;4103033;28;20047;-84
2023/12/20 09:06:15;;;;;;;6.30;3.10;;;6.00;94.80;;;;;;4103649;28;20047;-88
2023/12/20 09:08:16;;;;;;;3.42;1.40;;;5.90;95.00;;;;;;4103497;28;20134;-88
2023/12/20 09:10:22;;;;;;;2.90;1.30;;;5.90;94.90;;;;;;4103875;28;20052;-88
2023/12/20 09:12:23;;;;;;;2.53;1.17;;;6.00;94.90;;;;;;4105137;28;20055;-89
2023/12/20 09:14:25;;;;;;;2.45;1.15;;;5.90;95.00;;;;;;4104728;28;20543;-86
2023/12/20 09:16:27;;;;;;;3.30;1.10;;;5.80;94.70;;;;;;4103296;28;20416;-87
2023/12/20 09:18:29;;;;;;;2.50;0.77;;;5.80;94.30;;;;;;4104013;28;20055;-86
2023/12/20 09:20:31;;;;;;;2.55;1.13;;;5.80;94.50;;;;;;4117555;28;20151;-86
2023/12/20 09:22:33;;;;;;;2.65;1.00;;;5.80;94.60;;;;;;4102937;28;20043;-86
2023/12/20 09:24:35;;;;;;;2.95;1.17;;;5.70;94.60;;;;;;4101510;29;20050;-83
2023/12/20 09:26:37;;;;;;;2.63;1.10;;;5.80;94.80;;;;;;4103099;28;20047;-82
2023/12/20 09:28:40;;;;;;;3.08;1.40;;;5.70;94.80;;;;;;4103390;28;20047;-85
2023/12/20 09:30:42;;;;;;;3.28;1.17;;;5.70;94.40;;;;;;4103334;28;20044;-85
2023/12/20 09:32:46;;;;;;;3.85;1.50;;;5.70;94.30;;;;;;4103741;28;20048;-84
2023/12/20 09:34:48;;;;;;;2.95;1.40;;;5.80;94.20;;;;;;4103240;28;20043;-84
2023/12/20 09:36:50;;;;;;;2.90;1.30;;;5.80;94.30;;;;;;4104110;28;20453;-84
2023/12/20 09:38:52;;;;;;;3.67;1.55;;;5.80;93.10;;;;;;4103814;28;20070;-87
2023/12/20 09:40:55;;;;;;;5.13;1.30;;;5.80;92.40;;;;;;4103100;29;20047;-83
2023/12/20 09:42:59;;;;;;;4.28;1.30;;;5.80;91.20;;;;;;4102890;28;20245;-86
2023/12/20 09:45:12;;;;;;;3.67;1.50;;;5.90;92.30;;;;;;4104379;28;20459;-85
2023/12/20 09:47:26;;;;;;;5.53;1.30;;;5.90;92.30;;;;;;4106729;28;20047;-83
2023/12/20 09:49:31;;;;;;;4.05;1.33;;;5.80;91.30;;;;;;4105881;28;20051;-84
2023/12/20 09:51:35;;;;;;;3.88;1.25;;;5.80;91.10;;;;;;4103798;28;20066;-83
2023/12/20 09:53:40;;;;;;;5.28;1.60;;;5.80;91.20;;;;;;4106327;28;20126;-84
2023/12/20 09:55:43;;;;;;;4.15;1.40;;;5.80;90.70;;;;;;4103651;29;20055;-85
2023/12/20 09:57:45;;;;;;;3.58;1.10;;;5.80;90.80;;;;;;4104749;28;20481;-85
2023/12/20 09:59:50;;;;;;;6.55;1.52;;;5.80;89.80;;;;;;4103569;29;20043;-82
2023/12/20 10:01:57;;;;;;;3.40;1.33;;;5.80;87.80;;;;;;4104267;29;20066;-86
2023/12/20 10:04:06;;;;;;;5.00;1.35;;;5.80;88.20;;;;;;4106403;28;20094;-87
2023/12/20 10:06:14;;;;;;;5.88;1.40;;;5.80;87.50;;;;;;4123343;28;20154;-86
2023/12/20 10:08:15;;;;;;;4.63;1.40;;;5.70;84.90;;;;;;4105019;29;20047;-85
2023/12/20 10:10:23;;;;;;;5.18;1.98;;;5.70;85.10;;;;;;4106773;28;20083;-86
2023/12/20 10:12:35;;;;;;;6.22;1.45;;;5.80;85.50;;;;;;4106792;28;20086;-86
2023/12/20 10:14:36;;;;;;;5.18;1.20;;;5.70;83.70;;;;;;4106260;28;20051;-85
2023/12/20 10:16:37;;;;;;;6.45;1.50;;;5.70;84.30;;;;;;4119519;28;20055;-85
2023/12/20 10:18:40;;;;;;;5.70;1.42;;;5.70;85.00;;;;;;4103890;28;20140;-88
2023/12/20 10:20:43;;;;;;;6.13;1.40;;;5.70;83.00;;;;;;4107599;28;20488;-87
2023/12/20 10:22:47;;;;;;;3.97;1.35;;;5.70;83.30;;;;;;4105610;28;20105;-85
2023/12/20 10:24:49;;;;;;;8.70;1.50;;;5.70;83.50;;;;;;4103245;28;20062;-85
2023/12/20 10:27:04;;;;;;;3.92;1.58;;;5.70;83.70;;;;;;4104651;28;20054;-85
2023/12/20 10:29:06;;;;;;;4.28;1.42;;;5.70;84.40;;;;;;4106867;28;20090;-88
2023/12/20 10:31:08;;;;;;;4.32;1.17;;;5.70;82.10;;;;;;4105890;28;20047;-87
2023/12/20 10:33:10;;;;;;;5.32;1.30;;;5.70;82.90;;;;;;4101979;28;20381;-85
2023/12/20 10:35:12;;;;;;;5.03;1.33;;;5.70;80.80;;;;;;4103685;29;20055;-86
2023/12/20 10:37:13;;;;;;;5.50;1.50;;;5.70;80.50;;;;;;4102587;28;20059;-84
2023/12/20 10:39:20;;;;;;;6.00;1.30;;;5.70;81.30;;;;;;4101482;28;20101;-84
2023/12/20 10:41:28;;;;;;;3.22;1.40;;;5.70;81.40;;;;;;4117701;28;20089;-85
2023/12/20 10:43:33;;;;;;;5.72;1.42;;;5.80;80.60;;;;;;4102318;29;20043;-86
2023/12/20 10:45:35;;;;;;;6.00;1.30;;;5.80;80.50;;;;;;4102506;28;20083;-85
2023/12/20 10:47:37;;;;;;;4.72;1.10;;;5.80;80.90;;;;;;4101869;28;20059;-84
2023/12/20 10:49:40;;;;;;;6.05;1.20;;;5.90;79.70;;;;;;4101995;28;20047;-86
2023/12/20 10:51:42;;;;;;;5.43;1.33;;;5.90;80.00;;;;;;4102672;28;20051;-86
2023/12/20 10:53:45;;;;;;;6.03;1.10;;;5.90;79.60;;;;;;4102238;28;20134;-86
2023/12/20 10:55:51;;;;;;;6.07;1.35;;;5.90;80.70;;;;;;4102322;29;20464;-84
2023/12/20 10:57:55;;;;;;;6.97;1.35;;;6.00;80.30;;;;;;4102510;28;20092;-85
2023/12/20 11:00:04;;;;;;;4.85;1.58;;;6.00;78.70;;;;;;4102650;29;20102;-85
2023/12/20 11:02:06;;;;;;;3.55;1.00;;;6.00;78.60;;;;;;4116976;28;20477;-89
2023/12/20 11:04:17;;;;;;;5.22;1.30;;;6.00;76.80;;;;;;4101109;29;20047;-89
2023/12/20 11:06:35;;;;;;;6.18;1.20;;;6.00;77.20;;;;;;4103962;29;20090;-86
2023/12/20 11:08:45;;;;;;;5.47;1.35;;;6.00;76.90;;;;;;4086557;28;20106;-86
2023/12/20 11:10:57;;;;;;;11.50;5.20;;;6.00;75.90;;;;;;4119264;28;20495;-85
2023/12/20 11:13:09;;;;;;;6.10;1.40;;;6.00;75.90;;;;;;4118359;28;20051;-84
2023/12/20 11:15:12;;;;;;;5.43;1.58;;;6.10;74.80;;;;;;4102670;28;20047;-85
2023/12/20 11:17:16;;;;;;;6.85;1.25;;;6.10;76.80;;;;;;4101906;28;20079;-84
2023/12/20 11:19:19;;;;;;;5.32;1.20;;;6.20;76.60;;;;;;4119589;28;20081;-84
2023/12/20 11:21:20;;;;;;;5.25;1.05;;;6.20;76.20;;;;;;4120315;28;20084;-87
2023/12/20 11:23:24;;;;;;;4.50;1.13;;;6.20;75.30;;;;;;4120206;28;20055;-87
2023/12/20 11:25:25;;;;;;;4.53;1.00;;;6.20;75.00;;;;;;4118838;28;20043;-85
2023/12/20 11:27:28;;;;;;;4.80;1.38;;;6.30;74.80;;;;;;4102208;29;20047;-85
2023/12/20 11:29:32;;;;;;;3.05;1.17;;;6.30;75.20;;;;;;4117315;28;20054;-87
2023/12/20 11:31:41;;;;;;;6.32;1.30;;;6.30;73.70;;;;;;4118317;28;20058;-86
2023/12/20 11:33:48;;;;;;;4.95;1.10;;;6.40;74.20;;;;;;4119911;28;20097;-86
2023/12/20 11:35:50;;;;;;;6.57;1.15;;;6.40;73.60;;;;;;4119457;28;20555;-79
2023/12/20 11:37:52;;;;;;;4.18;1.02;;;6.50;73.90;;;;;;4116920;28;20074;-86
2023/12/20 11:39:57;;;;;;;3.65;1.23;;;6.60;74.90;;;;;;4117276;28;20130;-85
2023/12/20 11:42:05;;;;;;;3.95;1.20;;;6.60;73.90;;;;;;4118104;28;20050;-85
2023/12/20 11:44:11;;;;;;;3.30;1.10;;;6.60;69.90;;;;;;4118871;28;20108;-85
2023/12/20 11:46:13;;;;;;;5.07;1.17;;;6.60;70.50;;;;;;4120495;28;20047;-84
2023/12/20 11:48:15;;;;;;;2.85;1.10;;;6.60;71.20;;;;;;4118197;28;20520;-87
2023/12/20 11:50:17;;;;;;;4.72;1.27;;;6.60;71.90;;;;;;4119175;28;20047;-86
2023/12/20 11:52:19;;;;;;;5.70;1.30;;;6.60;70.70;;;;;;4122717;28;20078;-85
2023/12/20 11:54:20;;;;;;;7.47;1.08;;;6.50;69.40;;;;;;4122044;28;20546;-87
2023/12/20 11:56:24;;;;;;;4.88;1.08;;;6.50;69.80;;;;;;4122194;28;20055;-87
2023/12/20 11:58:26;;;;;;;4.75;1.10;;;6.50;71.10;;;;;;4123366;28;20111;-86
2023/12/20 12:00:31;;;;;;;5.60;1.02;;;6.50;69.80;;;;;;4121967;28;20051;-85
2023/12/20 12:02:33;;;;;;;5.15;1.10;;;6.40;68.60;;;;;;4103474;29;20572;-85
2023/12/20 12:04:36;;;;;;;4.95;1.17;;;6.40;70.40;;;;;;4104545;28;20098;-84
2023/12/20 12:06:38;;;;;;;3.22;1.15;;;6.40;70.10;;;;;;4104939;28;20059;-88
2023/12/20 12:08:39;;;;;;;4.43;1.27;;;6.40;70.40;;;;;;4103834;28;20456;-86
2023/12/20 12:10:41;;;;;;;3.45;1.02;;;6.40;70.60;;;;;;4107911;28;20110;-86
2023/12/20 12:12:42;;;;;;;6.97;1.20;;;6.30;67.60;;;;;;4108103;28;20047;-85
2023/12/20 12:14:48;;;;;;;3.03;1.00;;;6.30;68.60;;;;;;4108722;28;20051;-86
2023/12/20 12:16:53;;;;;;;5.63;1.45;;;6.30;68.20;;;;;;4107916;29;20091;-87
2023/12/20 12:18:58;;;;;;;5.18;1.05;;;6.40;68.90;;;;;;4106951;28;20468;-89
2023/12/20 12:21:03;;;;;;;6.88;1.30;;;6.30;69.00;;;;;;4106998;28;20109;-86
2023/12/20 12:23:07;;;;;;;4.25;1.20;;;6.30;69.80;;;;;;4108269;28;20059;-89
2023/12/20 12:25:14;;;;;;;4.10;1.10;;;6.20;70.10;;;;;;4104996;29;20544;-87
2023/12/20 12:27:17;;;;;;;3.95;1.27;;;6.20;70.70;;;;;;4121677;28;20141;-87
2023/12/20 12:29:19;;;;;;;5.07;1.10;;;6.20;70.90;;;;;;4105491;28;20055;-87
2023/12/20 12:31:21;;;;;;;6.10;1.30;;;6.20;71.20;;;;;;4106403;29;20134;-86
2023/12/20 12:33:25;;;;;;;5.82;1.15;;;6.20;69.50;;;;;;4105190;28;20340;-86
2023/12/20 12:35:31;;;;;;;6.60;1.25;;;6.20;69.50;;;;;;4106967;28;20054;-89
2023/12/20 12:37:36;;;;;;;4.95;1.20;;;6.10;69.50;;;;;;4109378;28;20441;-86
2023/12/20 12:39:41;;;;;;;6.53;1.10;;;6.10;69.90;;;;;;4105437;28;20496;-88
2023/12/20 12:41:44;;;;;;;4.13;0.90;;;6.10;69.90;;;;;;4108826;28;20106;-86
2023/12/20 12:43:45;;;;;;;3.72;1.17;;;6.00;70.90;;;;;;4105980;28;20051;-86
2023/12/20 12:45:48;;;;;;;5.82;1.50;;;6.00;72.10;;;;;;4104861;28;20047;-87
2023/12/20 12:47:50;;;;;;;5.18;1.13;;;5.90;72.20;;;;;;4105264;28;20122;-86
2023/12/20 12:49:54;;;;;;;4.30;1.08;;;5.80;74.40;;;;;;4104161;29;20054;-86
2023/12/20 12:51:58;;;;;;;5.22;1.40;;;5.80;74.50;;;;;;4103051;29;20075;-90
2023/12/20 12:54:03;;;;;;;5.90;1.27;;;5.80;74.80;;;;;;4107686;28;20090;-87
2023/12/20 12:56:06;;;;;;;3.83;1.30;;;5.70;75.30;;;;;;4106705;28;20469;-86
2023/12/20 12:58:08;;;;;;;5.22;1.38;;;5.70;76.20;;;;;;4105359;29;20102;-85
2023/12/20 13:00:12;;;;;;;4.28;1.30;;;5.80;76.80;;;;;;4121790;28;20133;-85
2023/12/20 13:02:14;;;;;;;6.70;1.40;;;5.80;76.30;;;;;;4104166;29;20117;-79
2023/12/20 13:04:16;;;;;;;5.53;1.52;;;5.90;76.00;;;;;;4103993;29;20081;-85
2023/12/20 13:06:19;;;;;;;6.53;1.40;;;5.90;75.30;;;;;;4103714;28;20043;-79
2023/12/20 13:08:21;;;;;;;5.93;1.40;;;6.00;75.20;;;;;;4104002;28;20055;-85
2023/12/20 13:10:22;;;;;;;7.75;1.50;;;6.00;74.50;;;;;;4103568;28;20051;-84
2023/12/20 13:12:24;;;;;;;6.03;1.30;;;5.90;73.50;;;;;;4103752;29;20054;-84
2023/12/20 13:14:26;;;;;;;7.93;1.50;;;5.90;72.50;;;;;;4106953;28;20047;-84
2023/12/20 13:16:27;;;;;;;6.70;1.70;;;6.00;73.20;;;;;;4121935;28;20085;-84
2023/12/20 13:18:29;;;;;;;4.97;1.50;;;6.00;72.40;;;;;;4106525;28;20055;-85
2023/12/20 13:20:30;;;;;;;6.68;1.40;;;6.00;70.90;;;;;;4102310;29;20176;-79
2023/12/20 13:22:34;;;;;;;6.53;1.40;;;6.00;71.80;;;;;;4101037;28;20043;-82
2023/12/20 13:24:36;;;;;;;5.60;1.60;;;6.10;71.60;;;;;;4102230;29;20059;-79
2023/12/20 13:26:38;;;;;;;5.18;1.65;;;6.10;71.80;;;;;;4101783;28;20482;-80
2023/12/20 13:28:40;;;;;;;8.90;1.58;;;6.10;71.80;;;;;;4101971;29;20110;-81
2023/12/20 13:30:41;;;;;;;7.72;1.83;;;6.10;71.80;;;;;;4102131;28;20050;-80
2023/12/20 13:32:43;;;;;;;6.88;1.23;;;6.10;71.70;;;;;;4088595;28;20118;-78
2023/12/20 13:34:44;;;;;;;5.38;1.38;;;6.10;70.80;;;;;;4091441;29;20521;-78
2023/12/20 13:36:47;;;;;;;6.63;1.58;;;6.10;71.30;;;;;;4101831;29;20051;-80
2023/12/20 13:38:50;;;;;;;5.43;1.10;;;6.10;71.90;;;;;;4101829;29;20102;-76
2023/12/20 13:40:52;;;;;;;4.65;1.08;;;6.10;71.10;;;;;;4091943;29;20453;-80
2023/12/20 13:42:54;;;;;;;5.07;1.35;;;6.10;71.30;;;;;;4086727;29;20051;-79
2023/12/20 13:44:56;;;;;;;6.35;1.67;;;6.10;71.40;;;;;;4085772;29;20063;-79
2023/12/20 13:46:58;;;;;;;4.05;1.38;;;6.10;70.40;;;;;;4086825;29;20043;-79
2023/12/20 13:48:59;;;;;;;5.78;1.30;;;6.10;70.40;;;;;;4085546;29;20052;-78
2023/12/20 13:51:02;;;;;;;7.97;1.50;;;6.20;70.60;;;;;;4085946;29;20055;-77
2023/12/20 13:53:04;;;;;;;6.50;1.70;;;6.20;70.40;;;;;;4085676;29;20063;-79
2023/12/20 13:55:10;;;;;;;6.07;1.40;;;6.10;70.20;;;;;;4085752;29;20138;-79
2023/12/20 13:57:12;;;;;;;7.15;1.63;;;6.20;70.60;;;;;;4085719;29;20477;-79
2023/12/20 13:59:14;;;;;;;7.50;1.40;;;6.20;70.30;;;;;;4085374;29;20091;-79
2023/12/20 14:01:16;;;;;;;5.70;1.80;;;6.20;70.30;;;;;;4093173;29;20062;-79
2023/12/20 14:03:19;;;;;;;9.57;1.63;;;6.20;70.70;;;;;;4101329;29;20382;-79
2023/12/20 14:05:23;;;;;;;7.22;1.70;;;6.20;70.50;;;;;;4101486;29;20051;-78
2023/12/20 14:07:25;;;;;;;6.55;1.50;;;6.20;70.70;;;;;;4101225;28;20519;-79
2023/12/20 14:09:27;;;;;;;7.93;1.75;;;6.20;70.90;;;;;;4101710;29;20043;-77
2023/12/20 14:11:30;;;;;;;5.85;1.30;;;6.10;70.60;;;;;;4101819;29;20055;-77
2023/12/20 14:13:31;;;;;;;7.97;1.50;;;6.20;70.90;;;;;;4101270;29;20047;-78
2023/12/20 14:15:36;;;;;;;6.38;1.33;;;6.20;71.10;;;;;;4101478;29;20098;-78
2023/12/20 14:17:53;;;;;;;7.78;1.42;;;6.20;70.70;;;;;;4101420;29;20055;-76
2023/12/20 14:20:17;;;;;;;5.75;1.23;;;6.20;71.10;;;;;;4100339;29;20070;-76
2023/12/20 14:22:22;;;;;;;5.65;1.65;;;6.20;71.10;;;;;;4101848;29;20047;-76
2023/12/20 14:24:25;;;;;;;5.72;1.73;;;6.20;71.50;;;;;;4101537;28;20142;-79
2023/12/20 14:26:27;;;;;;;4.88;1.10;;;6.10;71.30;;;;;;4101276;28;20094;-77
2023/12/20 14:28:35;;;;;;;5.43;1.08;;;6.20;71.60;;;;;;4101553;29;20073;-77
2023/12/20 14:30:37;;;;;;;6.40;1.35;;;6.20;71.30;;;;;;4101884;29;20143;-77
2023/12/20 14:32:42;;;;;;;6.60;1.58;;;6.20;71.60;;;;;;4101403;28;20051;-75
2023/12/20 14:34:45;;;;;;;4.05;1.45;;;6.30;71.30;;;;;;4101802;28;20396;-78
2023/12/20 14:36:47;;;;;;;4.43;1.30;;;6.30;71.60;;;;;;4101829;28;20078;-77
2023/12/20 14:38:50;;;;;;;6.25;1.42;;;6.30;71.50;;;;;;4101606;28;20484;-79
2023/12/20 14:40:55;;;;;;;5.25;1.40;;;6.30;71.70;;;;;;4101980;29;20469;-79
2023/12/20 14:42:57;;;;;;;4.43;1.30;;;6.30;71.80;;;;;;4101236;28;20046;-75
2023/12/20 14:45:00;;;;;;;8.30;1.52;;;6.30;71.80;;;;;;4101134;28;20086;-76
2023/12/20 14:47:02;;;;;;;5.65;1.50;;;6.30;72.20;;;;;;4101056;29;20408;-77
2023/12/20 14:49:14;;;;;;;6.80;1.65;;;6.30;71.90;;;;;;4100757;28;20098;-77
2023/12/20 14:51:22;;;;;;;9.10;1.83;;;6.20;72.10;;;;;;4100705;29;20554;-75
2023/12/20 14:53:27;;;;;;;7.20;1.65;;;6.20;72.20;;;;;;4100748;29;20059;-76
2023/12/20 14:55:29;;;;;;;8.77;2.10;;;6.20;72.70;;;;;;4100666;29;20051;-77
2023/12/20 14:57:34;;;;;;;8.00;2.40;;;6.20;73.00;;;;;;4100509;29;20043;-78
2023/12/20 14:59:36;;;;;;;7.13;1.40;;;6.10;73.30;;;;;;4100249;29;20047;-78
2023/12/20 15:01:40;;;;;;;5.32;1.02;;;6.10;73.20;;;;;;4100272;28;20103;-77
2023/12/20 15:03:47;;;;;;;7.63;1.55;;;6.00;73.90;;;;;;4100766;29;20061;-78
2023/12/20 15:05:51;;;;;;;6.32;1.30;;;6.00;74.10;;;;;;4100770;29;20490;-78
2023/12/20 15:07:53;;;;;;;3.60;1.00;;;6.00;74.30;;;;;;4099989;28;20052;-77
2023/12/20 15:09:54;;;;;;;8.40;1.15;;;6.00;74.30;;;;;;4100227;29;20457;-78
2023/12/20 15:11:56;;;;;;;3.83;1.13;;;6.00;74.60;;;;;;4100042;29;20051;-79
2023/12/20 15:14:00;;;;;;;8.85;1.40;;;5.90;74.90;;;;;;4095998;28;20540;-77
2023/12/20 15:16:02;;;;;;;4.47;0.90;;;5.90;75.00;;;;;;4112396;28;20223;-80
2023/12/20 15:18:05;;;;;;;6.47;1.80;;;5.90;75.10;;;;;;4100425;28;20493;-80
2023/12/20 15:20:10;;;;;;;6.18;1.58;;;5.90;75.40;;;;;;4099859;28;20102;-80
2023/12/20 15:22:12;;;;;;;6.53;1.42;;;5.90;75.60;;;;;;4099367;29;20071;-77
2023/12/20 15:24:15;;;;;;;5.85;1.30;;;5.90;75.50;;;;;;4099323;29;20103;-82
2023/12/20 15:26:16;;;;;;;6.43;1.48;;;6.00;75.80;;;;;;4083547;29;20171;-79
2023/12/20 15:28:18;;;;;;;8.32;1.58;;;6.00;75.70;;;;;;4084930;28;20060;-78
2023/12/20 15:30:20;;;;;;;4.50;1.20;;;6.00;75.80;;;;;;4083928;29;20134;-81
2023/12/20 15:32:22;;;;;;;6.43;1.55;;;5.90;76.50;;;;;;4097990;29;20552;-79
2023/12/20 15:34:24;;;;;;;6.93;1.70;;;5.80;76.40;;;;;;4098254;28;20105;-81
2023/12/20 15:36:26;;;;;;;5.03;1.30;;;5.90;76.80;;;;;;4098169;29;20055;-79
2023/12/20 15:38:28;;;;;;;4.57;1.45;;;5.90;76.80;;;;;;4098130;29;20499;-79
2023/12/20 15:40:30;;;;;;;4.32;1.58;;;5.80;77.00;;;;;;4097223;28;20048;-80
2023/12/20 15:42:32;;;;;;;5.85;1.40;;;5.90;77.40;;;;;;4098116;28;20051;-80
2023/12/20 15:44:34;;;;;;;3.60;0.98;;;5.90;77.50;;;;;;4098021;28;20137;-79
2023/12/20 15:46:35;;;;;;;6.15;1.58;;;5.90;77.40;;;;;;4099048;28;20389;-80
2023/12/20 15:48:37;;;;;;;6.25;1.40;;;5.90;77.50;;;;;;4100896;29;20110;-80
2023/12/20 15:50:40;;;;;;;3.83;1.50;;;5.90;77.50;;;;;;4100924;28;20386;-79
2023/12/20 15:52:43;;;;;;;6.07;1.65;;;5.80;77.70;;;;;;4101145;29;20106;-80
2023/12/20 15:54:46;;;;;;;6.78;1.65;;;5.80;78.20;;;;;;4101463;29;20118;-80
2023/12/20 15:56:48;;;;;;;6.72;1.70;;;5.80;78.40;;;;;;4101164;29;20055;-77
2023/12/20 15:58:51;;;;;;;5.85;1.55;;;5.80;78.50;;;;;;4100890;28;20481;-80
2023/12/20 16:00:53;;;;;;;6.32;1.48;;;5.80;78.50;;;;;;4100691;28;20058;-79
2023/12/20 16:02:54;;;;;;;5.30;1.80;;;5.80;78.80;;;;;;4100756;29;20107;-78
2023/12/20 16:04:56;;;;;;;5.97;1.58;;;5.70;78.60;;;;;;4100817;28;20453;-81
2023/12/20 16:07:00;;;;;;;8.45;3.22;;;5.70;78.80;;;;;;4100642;28;20047;-80
2023/12/20 16:09:02;;;;;;;23.20;8.55;;;5.70;79.00;;;;;;4100801;28;20067;-79
2023/12/20 16:11:04;;;;;;;8.68;2.20;;;5.70;79.10;;;;;;4100729;28;20094;-77
2023/12/20 16:13:07;;;;;;;7.90;1.80;;;5.70;79.10;;;;;;4100580;28;20059;-78
2023/12/20 16:15:10;;;;;;;6.75;1.80;;;5.70;79.30;;;;;;4100488;28;20560;-80
2023/12/20 16:17:12;;;;;;;6.15;1.48;;;5.70;79.30;;;;;;4100758;29;20063;-80
2023/12/20 16:19:14;;;;;;;6.78;1.48;;;5.70;79.30;;;;;;4100831;29;20051;-80
2023/12/20 16:21:17;;;;;;;5.68;1.70;;;5.70;79.50;;;;;;4100881;29;20125;-79
2023/12/20 16:23:20;;;;;;;6.13;1.60;;;5.70;79.50;;;;;;4101013;29;20113;-79
2023/12/20 16:25:23;;;;;;;3.88;1.27;;;5.70;79.50;;;;;;4100654;28;20109;-79
2023/12/20 16:27:25;;;;;;;5.38;1.88;;;5.70;79.30;;;;;;4099925;28;20078;-81
2023/12/20 16:29:26;;;;;;;7.15;1.30;;;5.70;79.20;;;;;;4100746;29;20055;-78
2023/12/20 16:31:28;;;;;;;5.05;1.35;;;5.70;79.20;;;;;;4100714;28;20394;-79
2023/12/20 16:33:30;;;;;;;4.75;1.33;;;5.70;79.20;;;;;;4100617;28;20524;-78
2023/12/20 16:35:32;;;;;;;6.97;1.88;;;5.70;79.20;;;;;;4100508;28;20501;-79
2023/12/20 16:37:37;;;;;;;5.55;1.30;;;5.70;79.30;;;;;;4100549;28;20548;-79
2023/12/20 16:39:40;;;;;;;7.47;2.00;;;5.70;79.50;;;;;;4100433;28;20142;-79
2023/12/20 16:41:42;;;;;;;4.80;1.48;;;5.60;79.60;;;;;;4100158;29;20059;-79
2023/12/20 16:43:44;;;;;;;6.32;1.50;;;5.70;79.70;;;;;;4100585;29;20083;-78
2023/12/20 16:45:46;;;;;;;6.15;1.40;;;5.60;79.80;;;;;;4099471;28;20481;-80
2023/12/20 16:47:48;;;;;;;3.58;1.48;;;5.60;79.70;;;;;;4099410;29;20055;-79
2023/12/20 16:49:55;;;;;;;4.28;1.23;;;5.70;79.60;;;;;;4105528;28;20054;-87